createdAt,value
2024-02-15T00:01:23.047Z,16.67
2024-02-15T00:03:56.992Z,25.42
2024-02-15T00:06:31.971Z,16.15
2024-02-15T00:09:05.641Z,37.85
2024-02-15T00:11:41.406Z,14.02
2024-02-15T00:14:15.025Z,16.73
2024-02-15T00:16:48.605Z,14.90
2024-02-15T00:19:22.878Z,11.02
2024-02-15T00:21:57.388Z,9.15
2024-02-15T00:24:32.018Z,14.30
2024-02-15T00:27:07.423Z,15.82
2024-02-15T00:29:41.645Z,14.85
2024-02-15T00:32:15.456Z,16.00
2024-02-15T00:34:49.510Z,11.48
2024-02-15T00:37:23.564Z,8.48
2024-02-15T00:39:57.121Z,11.50
2024-02-15T00:42:32.836Z,11.38
2024-02-15T00:45:07.216Z,10.02
2024-02-15T00:47:43.043Z,12.77
2024-02-15T00:50:17.290Z,16.75
2024-02-15T00:52:50.971Z,9.73
2024-02-15T00:55:24.701Z,11.00
2024-02-15T00:57:59.772Z,28.52
2024-02-15T01:00:33.322Z,17.88
2024-02-15T01:03:07.036Z,12.95
2024-02-15T01:05:40.932Z,9.48
2024-02-15T01:08:14.620Z,8.18
2024-02-15T01:10:48.357Z,20.27
2024-02-15T01:13:23.338Z,11.85
2024-02-15T01:15:57.194Z,7.47
2024-02-15T01:18:31.018Z,14.55
2024-02-15T01:21:05.126Z,10.88
2024-02-15T01:25:21.090Z,32.13
2024-02-15T01:27:54.802Z,14.18
2024-02-15T01:30:29.762Z,27.63
2024-02-15T01:33:03.457Z,19.48
2024-02-15T01:35:37.670Z,18.95
2024-02-15T01:38:11.678Z,20.08
2024-02-15T01:40:48.716Z,12.25
2024-02-15T01:43:22.331Z,17.88
2024-02-15T01:45:57.751Z,15.60
2024-02-15T01:48:31.632Z,14.77
2024-02-15T01:51:06.739Z,11.13
2024-02-15T01:53:42.471Z,10.00
2024-02-15T01:56:19.378Z,9.27
2024-02-15T01:58:53.605Z,8.13
2024-02-15T02:01:27.874Z,14.07
2024-02-15T02:04:02.996Z,8.57
2024-02-15T02:06:36.728Z,9.65
2024-02-15T02:09:14.127Z,6.78
2024-02-15T02:11:51.894Z,11.38
2024-02-15T02:14:25.579Z,11.38
2024-02-15T02:17:13.170Z,12.43
2024-02-15T02:19:46.842Z,10.55
2024-02-15T02:22:21.829Z,17.70
2024-02-15T02:25:01.927Z,12.95
2024-02-15T02:27:35.850Z,14.35
2024-02-15T02:30:16.524Z,13.20
2024-02-15T02:32:50.699Z,11.50
2024-02-15T02:35:24.398Z,15.57
2024-02-15T02:37:58.718Z,10.38
2024-02-15T02:40:35.058Z,12.10
2024-02-15T02:43:08.634Z,19.98
2024-02-15T02:45:42.852Z,12.82
2024-02-15T02:48:16.563Z,10.20
2024-02-15T02:50:50.536Z,10.75
2024-02-15T02:53:24.358Z,15.85
2024-02-15T02:55:59.480Z,9.20
2024-02-15T02:58:33.070Z,19.60
2024-02-15T03:01:07.488Z,12.30
2024-02-15T03:03:41.241Z,11.98
2024-02-15T03:06:15.203Z,5.60
2024-02-15T03:08:49.121Z,13.35
2024-02-15T03:11:24.112Z,25.83
2024-02-15T03:13:59.520Z,42.75
2024-02-15T03:16:33.174Z,12.52
2024-02-15T03:19:06.813Z,40.08
2024-02-15T03:21:40.926Z,32.60
2024-02-15T03:24:14.567Z,54.55
2024-02-15T03:26:49.548Z,15.00
2024-02-15T03:29:23.761Z,57.03
2024-02-15T03:31:57.353Z,23.77
2024-02-15T03:34:31.159Z,11.68
2024-02-15T03:37:05.243Z,9.48
2024-02-15T03:39:38.876Z,9.27
2024-02-15T03:42:13.902Z,10.75
2024-02-15T03:44:49.025Z,10.98
2024-02-15T03:47:22.757Z,10.82
2024-02-15T03:49:56.932Z,11.30
2024-02-15T03:52:31.038Z,11.23
2024-02-15T03:55:05.421Z,9.25
2024-02-15T03:57:42.391Z,8.50
2024-02-15T04:00:17.165Z,13.95
2024-02-15T04:02:51.303Z,13.45
2024-02-15T04:05:25.163Z,11.88
2024-02-15T04:07:58.733Z,12.88
2024-02-15T04:10:32.379Z,8.48
2024-02-15T04:13:11.622Z,9.48
2024-02-15T04:15:48.087Z,16.27
2024-02-15T04:18:21.769Z,10.95
2024-02-15T04:20:55.491Z,12.35
2024-02-15T04:23:30.460Z,10.75
2024-02-15T04:26:04.548Z,12.32
2024-02-15T04:28:39.530Z,11.25
2024-02-15T04:31:13.742Z,27.15
2024-02-15T04:33:50.230Z,14.48
2024-02-15T04:36:25.971Z,17.58
2024-02-15T04:38:59.570Z,39.53
2024-02-15T04:41:33.429Z,25.80
2024-02-15T04:44:12.994Z,16.55
2024-02-15T04:46:47.008Z,12.48
2024-02-15T04:49:20.941Z,16.20
2024-02-15T04:51:54.578Z,12.75
2024-02-15T04:54:28.167Z,27.05
2024-02-15T04:57:02.297Z,21.02
2024-02-15T04:59:37.431Z,14.57
2024-02-15T05:02:11.487Z,17.65
2024-02-15T05:04:45.613Z,10.10
2024-02-15T05:07:19.695Z,10.63
2024-02-15T05:09:54.110Z,12.02
2024-02-15T05:12:28.595Z,24.50
2024-02-15T05:15:11.016Z,13.32
2024-02-15T05:17:44.945Z,18.40
2024-02-15T05:20:21.718Z,14.80
2024-02-15T05:22:55.305Z,10.07
2024-02-15T05:25:28.876Z,14.63
2024-02-15T05:28:02.842Z,15.98
2024-02-15T05:30:40.333Z,10.98
2024-02-15T05:33:14.047Z,13.10
2024-02-15T05:35:51.068Z,9.48
2024-02-15T05:38:25.147Z,8.18
2024-02-15T05:40:58.935Z,12.43
2024-02-15T05:43:34.274Z,11.55
2024-02-15T05:46:10.948Z,9.48
2024-02-15T05:48:44.607Z,9.10
2024-02-15T05:51:18.318Z,11.50
2024-02-15T05:53:52.083Z,8.75
2024-02-15T05:56:27.037Z,12.50
2024-02-15T05:59:03.362Z,11.80
2024-02-15T06:01:38.315Z,11.38
2024-02-15T06:04:12.164Z,9.68
2024-02-15T06:06:50.220Z,10.35
2024-02-15T06:09:27.717Z,13.70
2024-02-15T06:12:01.806Z,14.10
2024-02-15T06:14:35.425Z,9.32
2024-02-15T06:17:11.873Z,10.40
2024-02-15T06:19:45.439Z,7.28
2024-02-15T06:22:19.005Z,11.35
2024-02-15T06:24:52.579Z,11.63
2024-02-15T06:27:26.263Z,11.40
2024-02-15T06:30:17.661Z,9.05
2024-02-15T06:33:10.072Z,85.82
2024-02-15T06:36:06.552Z,22.73
2024-02-15T06:38:57.818Z,12.90
2024-02-15T06:41:31.370Z,13.50
2024-02-15T06:44:05.168Z,9.10
2024-02-15T06:46:38.711Z,11.07
2024-02-15T06:49:14.141Z,9.95
2024-02-15T06:51:50.455Z,9.20
2024-02-15T06:54:25.018Z,8.75
2024-02-15T06:56:59.141Z,10.05
2024-02-15T06:59:33.788Z,7.60
2024-02-15T07:02:09.300Z,14.73
2024-02-15T07:04:47.102Z,9.32
2024-02-15T07:07:20.727Z,9.55
2024-02-15T07:09:54.472Z,11.07
2024-02-15T07:12:28.075Z,8.57
2024-02-15T07:15:02.595Z,8.55
2024-02-15T07:17:38.060Z,7.47
2024-02-15T07:20:15.456Z,8.45
2024-02-15T07:22:49.113Z,7.28
2024-02-15T07:25:22.677Z,8.63
2024-02-15T07:27:57.926Z,9.98
2024-02-15T07:30:32.765Z,9.27
2024-02-15T07:33:07.897Z,8.23
2024-02-15T07:35:44.395Z,8.23
2024-02-15T07:38:18.339Z,10.20
2024-02-15T07:40:51.884Z,10.00
2024-02-15T07:43:25.494Z,8.52
2024-02-15T07:45:59.033Z,6.10
2024-02-15T07:48:33.784Z,13.52
2024-02-15T07:51:11.013Z,9.77
2024-02-15T07:53:45.175Z,8.57
2024-02-15T07:56:20.827Z,11.57
2024-02-15T07:58:54.924Z,9.20
2024-02-15T08:01:28.789Z,12.32
2024-02-15T08:04:02.433Z,9.68
2024-02-15T08:06:39.230Z,9.55
2024-02-15T08:09:15.077Z,9.45
2024-02-15T08:11:48.832Z,10.18
2024-02-15T08:14:22.449Z,9.10
2024-02-15T08:16:56.794Z,7.15
2024-02-15T08:19:30.728Z,6.72
2024-02-15T08:22:08.585Z,10.05
2024-02-15T08:24:42.176Z,8.93
2024-02-15T08:27:17.355Z,11.50
2024-02-15T08:29:51.030Z,8.50
2024-02-15T08:32:25.488Z,13.25
2024-02-15T08:35:00.241Z,12.50
2024-02-15T08:37:36.189Z,9.30
2024-02-15T08:40:12.672Z,20.27
2024-02-15T08:42:47.024Z,13.02
2024-02-15T08:45:21.451Z,20.55
2024-02-15T08:47:55.407Z,13.35
2024-02-15T08:50:29.309Z,9.75
2024-02-15T08:53:07.256Z,10.32
2024-02-15T08:55:40.857Z,7.25
2024-02-15T08:58:14.416Z,9.35
2024-02-15T09:00:47.970Z,9.27
2024-02-15T09:03:21.672Z,7.88
2024-02-15T09:05:55.329Z,10.18
2024-02-15T09:08:31.227Z,11.40
2024-02-15T09:11:06.476Z,8.32
2024-02-15T09:13:40.728Z,7.07
2024-02-15T09:16:14.371Z,8.77
2024-02-15T09:18:48.176Z,7.03
2024-02-15T09:21:23.348Z,9.35
2024-02-15T09:23:58.374Z,6.82
2024-02-15T09:26:32.056Z,10.07
2024-02-15T09:29:08.598Z,10.13
2024-02-15T09:31:42.551Z,6.95
2024-02-15T09:34:16.394Z,10.52
2024-02-15T09:36:50.150Z,9.98
2024-02-15T09:39:25.277Z,8.85
2024-02-15T09:42:03.438Z,11.10
2024-02-15T09:44:37.154Z,8.20
2024-02-15T09:47:12.750Z,7.05
2024-02-15T09:49:46.510Z,9.60
2024-02-15T09:52:20.167Z,14.25
2024-02-15T09:54:56.500Z,9.93
2024-02-15T09:57:30.288Z,9.07
2024-02-15T10:00:08.404Z,9.32
2024-02-15T10:02:43.111Z,8.75
2024-02-15T10:05:16.780Z,11.48
2024-02-15T10:07:50.418Z,8.30
2024-02-15T10:10:26.928Z,7.70
2024-02-15T10:13:02.565Z,7.25
2024-02-15T10:15:37.952Z,10.02
2024-02-15T10:18:14.015Z,9.73
2024-02-15T10:21:00.205Z,6.43
2024-02-15T10:23:34.213Z,9.20
2024-02-15T10:26:24.634Z,18.38
2024-02-15T10:29:10.246Z,8.82
2024-02-15T10:31:55.978Z,8.32
2024-02-15T10:34:30.698Z,9.85
2024-02-15T10:37:13.403Z,7.43
2024-02-15T10:39:48.016Z,7.05
2024-02-15T10:42:23.518Z,9.02
2024-02-15T10:44:57.399Z,6.65
2024-02-15T10:47:32.151Z,8.00
2024-02-15T10:50:06.768Z,9.30
2024-02-15T10:52:50.366Z,7.22
2024-02-15T10:55:35.779Z,10.60
2024-02-15T10:58:12.805Z,11.23
2024-02-15T11:00:48.673Z,5.85
2024-02-15T11:03:27.899Z,11.15
2024-02-15T11:06:04.597Z,9.27
2024-02-15T11:08:38.483Z,6.90
2024-02-15T11:11:15.759Z,9.27
2024-02-15T11:13:51.269Z,7.65
2024-02-15T11:16:44.016Z,7.88
2024-02-15T11:19:48.221Z,5.60
2024-02-15T11:22:24.175Z,8.73
2024-02-15T11:24:58.006Z,6.53
2024-02-15T11:27:33.252Z,8.77
2024-02-15T11:30:13.817Z,6.70
2024-02-15T11:32:50.992Z,7.20
2024-02-15T11:35:26.398Z,6.07
2024-02-15T11:38:04.185Z,6.90
2024-02-15T11:41:06.825Z,6.88
2024-02-15T11:43:57.253Z,5.35
2024-02-15T11:46:33.802Z,7.70
2024-02-15T11:49:08.634Z,5.60
2024-02-15T11:51:51.289Z,6.30
2024-02-15T11:54:24.903Z,6.45
2024-02-15T11:57:11.541Z,8.88
2024-02-15T12:00:14.124Z,5.75
2024-02-15T12:03:06.530Z,4.32
2024-02-15T12:05:58.587Z,6.57
2024-02-15T12:08:49.826Z,7.15
2024-02-15T12:11:41.095Z,7.13
2024-02-15T12:14:32.678Z,5.68
2024-02-15T12:17:25.087Z,7.57
2024-02-15T12:20:07.870Z,6.85
2024-02-15T12:22:44.689Z,5.15
2024-02-15T12:25:22.278Z,5.10
2024-02-15T12:27:57.770Z,6.70
2024-02-15T12:30:38.998Z,6.90
2024-02-15T12:33:15.060Z,6.13
2024-02-15T12:35:51.458Z,6.07
2024-02-15T12:38:25.184Z,6.25
2024-02-15T12:40:58.849Z,5.55
2024-02-15T12:43:32.547Z,6.80
2024-02-15T12:46:08.311Z,6.35
2024-02-15T12:48:44.923Z,7.63
2024-02-15T12:51:20.067Z,7.68
2024-02-15T12:53:53.748Z,6.10
2024-02-15T12:56:27.393Z,6.13
2024-02-15T12:59:02.060Z,5.13
2024-02-15T13:01:35.826Z,6.13
2024-02-15T13:04:09.973Z,5.00
2024-02-15T13:06:45.048Z,7.53
2024-02-15T13:09:18.909Z,6.20
2024-02-15T13:11:54.887Z,6.13
2024-02-15T13:14:30.610Z,7.72
2024-02-15T13:17:04.137Z,6.22
2024-02-15T13:19:37.837Z,7.85
2024-02-15T13:22:12.812Z,8.65
2024-02-15T13:24:47.054Z,5.00
2024-02-15T13:27:20.712Z,10.05
2024-02-15T13:29:54.764Z,9.05
2024-02-15T13:32:29.561Z,8.48
2024-02-15T13:35:08.659Z,6.20
2024-02-15T13:37:45.241Z,5.05
2024-02-15T13:40:20.960Z,7.80
2024-02-15T13:42:59.666Z,9.48
2024-02-15T13:45:34.531Z,6.40
2024-02-15T13:48:10.139Z,7.85
2024-02-15T13:50:44.224Z,9.00
2024-02-15T13:53:19.541Z,7.13
2024-02-15T13:55:53.375Z,5.30
2024-02-15T13:58:26.983Z,4.85
2024-02-15T14:01:04.315Z,6.68
2024-02-15T14:03:37.941Z,9.43
2024-02-15T14:06:11.665Z,7.47
2024-02-15T14:08:48.157Z,5.68
2024-02-15T14:11:22.385Z,5.55
2024-02-15T14:13:59.519Z,5.38
2024-02-15T14:16:35.414Z,7.15
2024-02-15T14:19:10.004Z,7.75
2024-02-15T14:21:46.093Z,5.82
2024-02-15T14:24:23.988Z,6.38
2024-02-15T14:26:57.629Z,9.15
2024-02-15T14:29:34.144Z,7.03
2024-02-15T14:32:25.065Z,6.32
2024-02-15T14:34:58.671Z,5.15
2024-02-15T14:37:32.275Z,6.05
2024-02-15T14:40:08.644Z,5.25
2024-02-15T14:42:55.666Z,5.45
2024-02-15T14:45:31.805Z,5.78
2024-02-15T14:48:07.247Z,6.10
2024-02-15T14:50:41.424Z,5.78
2024-02-15T14:53:16.896Z,5.93
2024-02-15T14:55:53.029Z,8.32
2024-02-15T14:58:26.677Z,5.93
2024-02-15T15:01:00.938Z,7.22
2024-02-15T15:03:34.909Z,7.22
2024-02-15T15:06:27.488Z,6.78
2024-02-15T15:09:18.603Z,6.03
2024-02-15T15:12:07.584Z,12.60
2024-02-15T15:14:41.760Z,5.83
2024-02-15T15:17:17.239Z,37.72
2024-02-15T15:19:50.932Z,67.93
2024-02-15T15:22:25.015Z,26.95
2024-02-15T15:24:58.602Z,46.33
2024-02-15T15:27:34.886Z,10.27
2024-02-15T15:30:09.614Z,72.20
2024-02-15T15:32:43.272Z,8.95
2024-02-15T15:35:18.877Z,9.65
2024-02-15T15:37:52.722Z,8.30
2024-02-15T15:40:27.316Z,8.77
2024-02-15T15:43:04.186Z,11.02
2024-02-15T15:45:38.020Z,7.72
2024-02-15T15:48:12.914Z,8.55
2024-02-15T15:50:46.700Z,6.78
2024-02-15T15:53:22.074Z,6.18
2024-02-15T15:55:55.839Z,7.53
2024-02-15T15:58:31.129Z,15.18
2024-02-15T16:01:05.814Z,9.90
2024-02-15T16:03:41.196Z,8.77
2024-02-15T16:06:15.518Z,10.98
2024-02-15T16:08:49.251Z,7.47
2024-02-15T16:11:23.036Z,6.55
2024-02-15T16:13:58.062Z,10.07
2024-02-15T16:16:31.732Z,6.43
2024-02-15T16:19:06.097Z,7.57
2024-02-15T16:21:40.500Z,9.68
2024-02-15T16:24:14.313Z,8.40
2024-02-15T16:26:48.032Z,7.47
2024-02-15T16:29:23.372Z,8.30
2024-02-15T16:31:56.973Z,7.18
2024-02-15T16:34:30.779Z,8.05
2024-02-15T16:37:05.210Z,16.67
2024-02-15T16:39:39.337Z,14.07
2024-02-15T16:42:13.766Z,9.88
2024-02-15T16:44:49.153Z,8.95
2024-02-15T16:47:23.112Z,11.50
2024-02-15T16:49:58.566Z,13.07
2024-02-15T16:52:32.175Z,10.05
2024-02-15T16:55:07.824Z,10.13
2024-02-15T16:57:42.079Z,8.95
2024-02-15T17:00:19.493Z,8.00
2024-02-15T17:02:53.667Z,12.40
2024-02-15T17:05:28.047Z,9.02
2024-02-15T17:08:01.730Z,10.35
2024-02-15T17:10:36.221Z,10.95
2024-02-15T17:13:10.072Z,10.80
2024-02-15T17:15:45.034Z,8.65
2024-02-15T17:18:24.494Z,10.68
2024-02-15T17:21:00.967Z,11.80
2024-02-15T17:23:34.820Z,10.15
2024-02-15T17:26:08.399Z,7.32
2024-02-15T17:28:42.123Z,9.25
2024-02-15T17:31:17.940Z,7.55
2024-02-15T17:33:51.623Z,9.75
2024-02-15T17:36:25.717Z,8.23
2024-02-15T17:38:59.925Z,9.95
2024-02-15T17:41:34.298Z,10.20
2024-02-15T17:44:09.373Z,11.27
2024-02-15T17:46:44.279Z,12.73
2024-02-15T17:49:18.010Z,9.68
2024-02-15T17:51:51.626Z,12.68
2024-02-15T17:54:25.321Z,12.00
2024-02-15T17:56:59.030Z,12.55
2024-02-15T17:59:32.597Z,11.52
2024-02-15T18:02:07.658Z,10.85
2024-02-15T18:04:41.286Z,12.95
2024-02-15T18:07:17.050Z,19.85
2024-02-15T18:09:52.331Z,10.93
2024-02-15T18:12:28.392Z,10.68
2024-02-15T18:15:03.106Z,10.30
2024-02-15T18:17:38.183Z,14.52
2024-02-15T18:20:13.887Z,16.13
2024-02-15T18:22:47.867Z,15.40
2024-02-15T18:25:21.667Z,11.63
2024-02-15T18:27:55.240Z,14.90
2024-02-15T18:30:34.295Z,16.60
2024-02-15T18:33:10.837Z,14.80
2024-02-15T18:35:45.371Z,23.23
2024-02-15T18:38:18.970Z,15.50
2024-02-15T18:40:52.695Z,18.42
2024-02-15T18:43:26.959Z,15.73
2024-02-15T18:46:00.904Z,14.20
2024-02-15T18:48:38.065Z,12.85
2024-02-15T18:51:16.577Z,15.23
2024-02-15T18:53:50.693Z,11.93
2024-02-15T18:56:25.801Z,18.60
2024-02-15T18:59:02.219Z,14.07
2024-02-15T19:01:36.556Z,10.93
2024-02-15T19:04:13.358Z,13.00
2024-02-15T19:06:47.176Z,15.68
2024-02-15T19:09:21.339Z,10.00
2024-02-15T19:11:55.489Z,11.77
2024-02-15T19:14:29.116Z,17.25
2024-02-15T19:17:02.731Z,12.63
2024-02-15T19:19:38.337Z,14.68
2024-02-15T19:22:13.275Z,14.85
2024-02-15T19:24:46.864Z,11.95
2024-02-15T19:27:21.378Z,16.35
2024-02-15T19:29:55.582Z,15.18
2024-02-15T19:32:29.205Z,14.98
2024-02-15T19:35:07.728Z,12.15
2024-02-15T19:37:41.878Z,16.45
2024-02-15T19:40:18.280Z,18.95
2024-02-15T19:42:52.765Z,18.42
2024-02-15T19:45:26.625Z,16.88
2024-02-15T19:48:01.151Z,11.20
2024-02-15T19:50:36.466Z,14.50
2024-02-15T19:53:10.024Z,16.35
2024-02-15T19:55:44.212Z,18.90
2024-02-15T19:58:17.835Z,44.00
2024-02-15T20:00:52.312Z,31.80
2024-02-15T20:03:29.011Z,15.45
2024-02-15T20:06:04.119Z,20.73
2024-02-15T20:08:38.117Z,14.93
2024-02-15T20:11:11.916Z,15.60
2024-02-15T20:13:46.636Z,15.18
2024-02-15T20:16:23.105Z,21.02
2024-02-15T20:18:59.528Z,26.58
2024-02-15T20:21:38.134Z,22.77
2024-02-15T20:24:12.161Z,25.63
2024-02-15T20:26:49.221Z,18.67
2024-02-15T20:29:25.256Z,15.60
2024-02-15T20:32:01.076Z,19.90
2024-02-15T20:34:35.627Z,19.10
2024-02-15T20:37:10.560Z,19.50
2024-02-15T20:39:45.777Z,22.23
2024-02-15T20:42:20.519Z,24.02
2024-02-15T20:44:54.177Z,16.83
2024-02-15T20:47:30.769Z,18.55
2024-02-15T20:50:05.224Z,22.60
2024-02-15T20:52:40.662Z,28.35
2024-02-15T20:55:14.701Z,28.48
2024-02-15T20:57:48.289Z,41.40
2024-02-15T21:00:22.009Z,38.85
2024-02-15T21:02:55.615Z,26.65
2024-02-15T21:05:30.071Z,38.13
2024-02-15T21:08:05.474Z,34.65
2024-02-15T21:10:39.978Z,56.42
2024-02-15T21:13:13.693Z,61.50
2024-02-15T21:15:48.603Z,55.30
2024-02-15T21:18:22.310Z,40.22
2024-02-15T21:20:56.012Z,27.50
2024-02-15T21:23:32.726Z,39.45
2024-02-15T21:26:06.700Z,45.20
2024-02-15T21:28:45.124Z,37.00
2024-02-15T21:31:18.799Z,37.90
2024-02-15T21:33:53.529Z,46.15
2024-02-15T21:36:27.280Z,44.80
2024-02-15T21:39:02.320Z,50.38
2024-02-15T21:41:36.466Z,41.10
2024-02-15T21:44:13.167Z,71.43
2024-02-15T21:46:48.343Z,184.43
2024-02-15T21:49:23.686Z,208.35
2024-02-15T21:51:57.488Z,148.90
2024-02-15T21:54:32.470Z,57.92
2024-02-15T21:57:07.167Z,38.40
2024-02-15T21:59:41.736Z,19.45
2024-02-15T22:02:15.322Z,22.08
2024-02-15T22:04:48.959Z,54.03
2024-02-15T22:07:24.483Z,92.93
2024-02-15T22:09:59.639Z,89.28
2024-02-15T22:12:33.206Z,89.53
2024-02-15T22:15:08.297Z,96.95
2024-02-15T22:17:42.005Z,90.28
2024-02-15T22:20:15.659Z,63.53
2024-02-15T22:22:49.242Z,36.67
2024-02-15T22:25:24.343Z,18.17
2024-02-15T22:27:58.705Z,15.68
2024-02-15T22:33:07.113Z,13.73
2024-02-15T22:35:40.968Z,17.58
2024-02-15T22:38:14.509Z,9.63
2024-02-15T22:40:49.490Z,23.48
2024-02-15T22:43:23.430Z,27.45
2024-02-15T22:45:59.715Z,59.97
2024-02-15T22:48:33.511Z,61.97
2024-02-15T22:51:07.463Z,16.65
2024-02-15T22:53:42.714Z,13.48
2024-02-15T22:56:17.922Z,23.33
2024-02-15T22:58:51.464Z,11.90
2024-02-15T23:01:25.439Z,8.18
2024-02-15T23:03:59.011Z,9.75
2024-02-15T23:06:32.611Z,11.27
2024-02-15T23:09:06.274Z,11.30
2024-02-15T23:11:41.203Z,11.57
2024-02-15T23:14:15.223Z,14.95
2024-02-15T23:16:48.777Z,12.18
2024-02-15T23:19:22.404Z,10.07
2024-02-15T23:21:55.991Z,10.55
2024-02-15T23:24:29.659Z,11.45
2024-02-15T23:27:06.479Z,9.10
2024-02-15T23:29:40.351Z,9.02
2024-02-15T23:32:14.256Z,11.73
2024-02-15T23:34:48.910Z,10.05
2024-02-15T23:37:40.223Z,10.25
2024-02-15T23:40:24.402Z,8.43
2024-02-15T23:42:59.295Z,8.13
2024-02-15T23:45:33.908Z,7.07
2024-02-15T23:48:08.784Z,11.77
2024-02-15T23:50:42.562Z,8.10
2024-02-15T23:53:16.131Z,9.88
2024-02-15T23:55:49.652Z,7.53
2024-02-15T23:58:24.566Z,9.95
